createdAt,value
2019-02-06T00:00:44.311Z,90.30
2019-02-06T00:03:15.924Z,90.18
2019-02-06T00:05:44.501Z,90.36
2019-02-06T00:08:13.068Z,90.34
2019-02-06T00:10:41.642Z,90.33
2019-02-06T00:13:10.306Z,90.31
2019-02-06T00:15:38.877Z,90.35
2019-02-06T00:18:07.959Z,90.43
2019-02-06T00:20:36.796Z,90.55
2019-02-06T00:23:05.352Z,90.63
2019-02-06T00:25:33.948Z,90.46
2019-02-06T00:28:02.501Z,90.55
2019-02-06T00:30:31.504Z,90.65
2019-02-06T00:33:00.432Z,90.64
2019-02-06T00:35:28.988Z,90.48
2019-02-06T00:37:57.550Z,90.53
2019-02-06T00:40:26.134Z,90.47
2019-02-06T00:42:54.713Z,90.50
2019-02-06T00:45:23.339Z,90.39
2019-02-06T00:47:51.925Z,90.53
2019-02-06T00:50:20.766Z,90.25
2019-02-06T00:52:49.320Z,90.45
2019-02-06T00:55:17.914Z,90.35
2019-02-06T00:57:46.505Z,90.38
2019-02-06T01:00:20.243Z,90.38
2019-02-06T01:02:49.072Z,90.25
2019-02-06T01:05:18.005Z,90.41
2019-02-06T01:07:47.233Z,90.53
2019-02-06T01:10:16.477Z,90.46
2019-02-06T01:12:45.057Z,90.73
2019-02-06T01:15:13.865Z,90.65
2019-02-06T01:17:42.427Z,90.78
2019-02-06T01:20:12.643Z,90.77
2019-02-06T01:22:41.262Z,90.78
2019-02-06T01:25:11.272Z,90.85
2019-02-06T01:27:40.168Z,90.91
2019-02-06T01:30:20.835Z,90.82
2019-02-06T01:32:49.418Z,90.80
2019-02-06T01:35:18.731Z,90.76
2019-02-06T01:37:47.246Z,90.84
2019-02-06T01:40:16.882Z,90.77
2019-02-06T01:42:45.463Z,90.72
2019-02-06T01:45:15.018Z,90.65
2019-02-06T01:47:43.618Z,90.75
2019-02-06T01:50:13.624Z,90.67
2019-02-06T01:52:42.268Z,90.67
2019-02-06T01:55:10.965Z,90.60
2019-02-06T01:57:39.520Z,90.64
2019-02-06T02:00:16.426Z,90.57
2019-02-06T02:02:45.004Z,90.54
2019-02-06T02:05:14.603Z,90.59
2019-02-06T02:07:43.210Z,90.53
2019-02-06T02:10:11.813Z,90.45
2019-02-06T02:12:40.358Z,90.98
2019-02-06T02:15:10.641Z,90.69
2019-02-06T02:17:39.871Z,90.35
2019-02-06T02:20:12.971Z,90.32
2019-02-06T02:22:41.101Z,90.47
2019-02-06T02:25:10.653Z,90.01
2019-02-06T02:27:40.027Z,89.57
2019-02-06T02:30:10.997Z,89.35
2019-02-06T02:32:40.246Z,89.32
2019-02-06T02:35:09.203Z,89.56
2019-02-06T02:37:38.221Z,89.87
2019-02-06T02:40:08.597Z,89.82
2019-02-06T02:42:38.236Z,89.94
2019-02-06T02:45:08.478Z,89.84
2019-02-06T02:47:37.459Z,89.65
2019-02-06T02:50:08.207Z,90.42
2019-02-06T02:52:37.501Z,89.96
2019-02-06T02:55:07.591Z,90.63
2019-02-06T02:57:36.844Z,90.75
2019-02-06T03:00:11.521Z,90.83
2019-02-06T03:03:02.707Z,90.68
2019-02-06T03:05:34.656Z,90.39
2019-02-06T03:08:03.867Z,90.33
2019-02-06T03:10:33.173Z,90.36
2019-02-06T03:13:01.895Z,90.33
2019-02-06T03:15:30.912Z,90.48
2019-02-06T03:18:00.235Z,90.36
2019-02-06T03:20:29.629Z,90.44
2019-02-06T03:22:59.012Z,90.29
2019-02-06T03:25:27.567Z,90.09
2019-02-06T03:27:56.843Z,90.11
2019-02-06T03:30:26.125Z,90.05
2019-02-06T03:32:54.720Z,90.46
2019-02-06T03:35:24.387Z,90.12
2019-02-06T03:37:53.983Z,90.34
2019-02-06T03:40:23.741Z,90.33
2019-02-06T03:42:53.446Z,90.29
2019-02-06T03:45:22.854Z,90.19
2019-02-06T03:47:52.538Z,90.10
2019-02-06T03:50:21.589Z,90.21
2019-02-06T03:52:50.966Z,90.22
2019-02-06T03:55:20.565Z,90.12
2019-02-06T03:57:49.462Z,90.13
2019-02-06T04:00:18.718Z,90.10
2019-02-06T04:02:47.674Z,90.37
2019-02-06T04:05:17.464Z,90.37
2019-02-06T04:07:47.044Z,90.11
2019-02-06T04:10:16.787Z,89.51
2019-02-06T04:12:46.878Z,89.47
2019-02-06T04:15:16.912Z,89.72
2019-02-06T04:17:46.519Z,90.31
2019-02-06T04:20:15.881Z,90.37
2019-02-06T04:22:44.756Z,90.04
2019-02-06T04:25:14.185Z,89.76
2019-02-06T04:27:43.830Z,89.61
2019-02-06T04:30:13.586Z,89.53
2019-02-06T04:32:43.154Z,89.22
2019-02-06T04:35:13.569Z,88.91
2019-02-06T04:37:42.994Z,89.00
2019-02-06T04:40:17.893Z,88.91
2019-02-06T04:42:47.565Z,88.72
2019-02-06T04:45:18.034Z,88.93
2019-02-06T04:47:47.669Z,88.95
2019-02-06T04:50:17.374Z,89.11
2019-02-06T04:52:47.068Z,89.13
2019-02-06T04:55:16.736Z,88.74
2019-02-06T04:57:46.497Z,89.18
2019-02-06T05:00:21.745Z,89.44
2019-02-06T05:02:50.989Z,89.60
2019-02-06T05:05:19.550Z,89.14
2019-02-06T05:07:49.240Z,88.73
2019-02-06T05:10:19.204Z,88.58
2019-02-06T05:12:49.077Z,88.49
2019-02-06T05:15:19.273Z,88.49
2019-02-06T05:17:48.926Z,88.62
2019-02-06T05:20:35.388Z,88.72
2019-02-06T05:23:05.417Z,88.72
2019-02-06T05:25:35.117Z,88.36
2019-02-06T05:28:04.869Z,88.82
2019-02-06T05:30:34.328Z,89.06
2019-02-06T05:33:04.094Z,89.02
2019-02-06T05:35:33.241Z,88.87
2019-02-06T05:38:02.949Z,88.74
2019-02-06T05:40:31.503Z,88.73
2019-02-06T05:43:00.078Z,89.19
2019-02-06T05:45:28.679Z,89.17
2019-02-06T05:47:57.262Z,89.05
2019-02-06T05:50:25.904Z,89.08
2019-02-06T05:52:54.498Z,88.82
2019-02-06T05:55:23.327Z,88.86
2019-02-06T05:57:51.931Z,89.05
2019-02-06T06:00:44.788Z,88.91
2019-02-06T06:03:13.379Z,88.87
2019-02-06T06:05:41.945Z,89.12
2019-02-06T06:08:10.772Z,89.37
2019-02-06T06:10:39.681Z,89.26
2019-02-06T06:13:08.592Z,88.74
2019-02-06T06:15:37.210Z,88.84
2019-02-06T06:18:05.850Z,88.29
2019-02-06T06:20:34.770Z,88.45
2019-02-06T06:23:03.321Z,89.15
2019-02-06T06:25:31.875Z,88.82
2019-02-06T06:28:00.460Z,88.67
2019-02-06T06:30:29.022Z,88.35
2019-02-06T06:32:57.604Z,88.24
2019-02-06T06:35:26.188Z,88.45
2019-02-06T06:37:59.396Z,88.11
2019-02-06T06:40:25.036Z,88.18
2019-02-06T06:42:53.611Z,88.31
2019-02-06T06:45:22.828Z,88.40
2019-02-06T06:47:51.476Z,87.33
2019-02-06T06:50:21.934Z,87.65
2019-02-06T06:52:50.492Z,87.96
2019-02-06T06:55:19.093Z,87.98
2019-02-06T06:57:48.030Z,87.94
2019-02-06T07:00:25.922Z,87.94
2019-02-06T07:02:55.301Z,88.60
2019-02-06T07:05:24.235Z,88.40
2019-02-06T07:07:53.268Z,88.74
2019-02-06T07:10:22.291Z,87.94
2019-02-06T07:13:00.458Z,87.44
2019-02-06T07:15:31.574Z,87.12
2019-02-06T07:18:00.767Z,86.86
2019-02-06T07:20:29.354Z,86.67
2019-02-06T07:22:58.384Z,87.06
2019-02-06T07:25:26.913Z,86.58
2019-02-06T07:27:55.493Z,86.87
2019-02-06T07:30:27.373Z,86.20
2019-02-06T07:32:56.370Z,85.54
2019-02-06T07:35:24.942Z,85.70
2019-02-06T07:37:53.512Z,85.31
2019-02-06T07:40:22.093Z,85.86
2019-02-06T07:42:50.675Z,84.66
2019-02-06T07:45:19.621Z,84.46
2019-02-06T07:47:48.255Z,84.80
2019-02-06T07:50:19.985Z,84.21
2019-02-06T07:52:49.359Z,83.56
2019-02-06T07:55:19.230Z,83.32
2019-02-06T07:57:48.922Z,82.65
2019-02-06T08:00:18.283Z,82.45
2019-02-06T08:02:46.844Z,81.10
2019-02-06T08:05:16.979Z,81.15
2019-02-06T08:07:45.631Z,81.42
2019-02-06T08:10:26.199Z,81.97
2019-02-06T08:12:54.754Z,79.95
2019-02-06T08:15:23.421Z,80.35
2019-02-06T08:17:52.341Z,79.09
2019-02-06T08:20:21.520Z,78.29
2019-02-06T08:22:51.200Z,77.86
2019-02-06T08:25:20.802Z,77.39
2019-02-06T08:27:50.485Z,76.42
2019-02-06T08:30:27.712Z,76.24
2019-02-06T08:32:57.008Z,74.81
2019-02-06T08:35:25.928Z,74.20
2019-02-06T08:37:55.199Z,75.17
2019-02-06T08:40:25.461Z,73.85
2019-02-06T08:42:54.739Z,72.96
2019-02-06T08:45:23.314Z,72.20
2019-02-06T08:47:52.601Z,72.10
2019-02-06T08:50:21.555Z,71.95
2019-02-06T08:52:51.277Z,71.56
2019-02-06T08:55:22.475Z,71.01
2019-02-06T08:57:51.450Z,70.41
2019-02-06T09:00:23.945Z,70.37
2019-02-06T09:02:53.228Z,69.80
2019-02-06T09:05:22.955Z,69.13
2019-02-06T09:07:52.632Z,68.38
2019-02-06T09:10:23.494Z,68.53
2019-02-06T09:15:34.557Z,67.17
2019-02-06T09:18:03.581Z,67.51
2019-02-06T09:20:35.918Z,66.84
2019-02-06T09:23:06.311Z,66.65
2019-02-06T09:25:38.657Z,65.93
2019-02-06T09:28:08.782Z,66.01
2019-02-06T09:30:38.520Z,65.45
2019-02-06T09:33:11.475Z,65.08
2019-02-06T09:35:40.422Z,64.58
2019-02-06T09:38:09.337Z,64.86
2019-02-06T09:40:37.897Z,64.29
2019-02-06T09:43:06.464Z,63.39
2019-02-06T09:45:38.374Z,62.98
2019-02-06T09:48:07.200Z,62.64
2019-02-06T09:50:37.694Z,62.08
2019-02-06T09:53:07.061Z,61.58
2019-02-06T09:55:36.980Z,61.76
2019-02-06T09:58:06.699Z,61.52
2019-02-06T10:00:37.676Z,61.36
2019-02-06T10:03:08.055Z,61.37
2019-02-06T10:05:37.633Z,61.10
2019-02-06T10:08:07.322Z,60.66
2019-02-06T10:10:36.254Z,60.30
2019-02-06T10:13:07.917Z,59.54
2019-02-06T10:15:38.242Z,59.04
2019-02-06T10:18:08.368Z,59.02
2019-02-06T10:20:56.198Z,59.02
2019-02-06T10:23:28.401Z,58.08
2019-02-06T10:25:57.261Z,56.64
2019-02-06T10:28:26.115Z,55.66
2019-02-06T10:30:55.039Z,55.57
2019-02-06T10:33:25.865Z,55.42
2019-02-06T10:35:57.799Z,55.86
2019-02-06T10:38:27.382Z,55.20
2019-02-06T10:40:59.607Z,55.25
2019-02-06T10:43:32.076Z,55.43
2019-02-06T10:46:02.316Z,54.39
2019-02-06T10:48:33.499Z,54.55
2019-02-06T10:51:02.847Z,53.98
2019-02-06T10:53:32.253Z,54.07
2019-02-06T10:56:03.978Z,53.19
2019-02-06T10:58:38.677Z,54.19
2019-02-06T11:01:08.322Z,54.69
2019-02-06T11:03:37.249Z,53.66
2019-02-06T11:06:05.913Z,53.92
2019-02-06T11:08:34.472Z,54.18
2019-02-06T11:11:03.045Z,54.75
2019-02-06T11:13:31.616Z,53.07
2019-02-06T11:16:00.202Z,51.18
2019-02-06T11:18:28.792Z,50.59
2019-02-06T11:20:57.437Z,49.43
2019-02-06T11:23:27.971Z,48.44
2019-02-06T11:25:57.027Z,46.42
2019-02-06T11:28:25.611Z,46.06
2019-02-06T11:30:56.997Z,46.39
2019-02-06T11:33:25.215Z,45.94
2019-02-06T11:35:54.066Z,44.11
2019-02-06T11:38:22.631Z,44.60
2019-02-06T11:40:51.606Z,44.71
2019-02-06T11:43:21.028Z,43.51
2019-02-06T11:45:49.650Z,43.22
2019-02-06T11:48:18.219Z,42.12
2019-02-06T11:50:46.796Z,42.24
2019-02-06T11:53:26.392Z,41.77
2019-02-06T11:55:55.025Z,40.14
2019-02-06T11:58:23.586Z,41.10
2019-02-06T12:01:07.768Z,41.58
2019-02-06T12:03:36.340Z,42.85
2019-02-06T12:06:09.539Z,43.68
2019-02-06T12:08:38.109Z,43.71
2019-02-06T12:11:06.677Z,43.17
2019-02-06T12:13:35.296Z,42.09
2019-02-06T12:16:03.914Z,41.96
2019-02-06T12:18:32.628Z,42.71
2019-02-06T12:21:01.181Z,42.90
2019-02-06T12:23:32.350Z,42.99
2019-02-06T12:26:00.432Z,43.63
2019-02-06T12:28:28.990Z,43.90
2019-02-06T12:30:57.596Z,42.47
2019-02-06T12:33:30.242Z,42.18
2019-02-06T12:35:58.807Z,41.11
2019-02-06T12:38:27.650Z,42.51
2019-02-06T12:41:04.776Z,42.96
2019-02-06T12:43:33.929Z,42.96
2019-02-06T12:46:05.766Z,45.16
2019-02-06T12:48:34.903Z,46.14
2019-02-06T12:51:03.867Z,46.04
2019-02-06T12:53:32.675Z,46.73
2019-02-06T12:56:02.142Z,47.43
2019-02-06T12:58:31.747Z,47.92
2019-02-06T13:01:02.527Z,48.38
2019-02-06T13:03:31.480Z,49.73
2019-02-06T13:06:00.803Z,50.54
2019-02-06T13:08:30.454Z,50.15
2019-02-06T13:10:59.302Z,50.05
2019-02-06T13:13:29.705Z,50.37
2019-02-06T13:16:00.121Z,50.12
2019-02-06T13:18:29.876Z,49.54
2019-02-06T13:21:00.261Z,48.47
2019-02-06T13:23:31.332Z,48.66
2019-02-06T13:26:00.634Z,49.05
2019-02-06T13:28:30.273Z,49.24
2019-02-06T13:30:59.938Z,49.17
2019-02-06T13:33:32.132Z,48.93
2019-02-06T13:36:01.124Z,48.51
2019-02-06T13:38:30.322Z,47.78
2019-02-06T13:40:59.686Z,47.37
2019-02-06T13:43:29.731Z,47.23
2019-02-06T13:45:58.763Z,47.05
2019-02-06T13:48:28.160Z,46.98
2019-02-06T13:50:57.146Z,47.13
2019-02-06T13:53:27.516Z,46.65
2019-02-06T13:55:56.068Z,46.46
2019-02-06T13:58:28.827Z,46.44
2019-02-06T14:00:57.399Z,45.82
2019-02-06T14:03:29.218Z,46.43
2019-02-06T14:06:00.255Z,46.65
2019-02-06T14:08:29.120Z,46.46
2019-02-06T14:11:00.883Z,45.78
2019-02-06T14:13:30.122Z,45.60
2019-02-06T14:16:00.332Z,45.41
2019-02-06T14:18:30.228Z,45.90
2019-02-06T14:20:59.598Z,46.24
2019-02-06T14:23:48.451Z,46.71
2019-02-06T14:26:25.684Z,46.28
2019-02-06T14:29:18.604Z,46.15
2019-02-06T14:32:22.073Z,46.42
2019-02-06T14:35:23.523Z,46.30
2019-02-06T14:38:43.211Z,46.71
2019-02-06T14:41:50.734Z,47.78
2019-02-06T14:44:40.004Z,49.00
2019-02-06T14:47:37.428Z,50.16
2019-02-06T14:51:08.645Z,50.33
2019-02-06T14:54:17.629Z,49.37
2019-02-06T14:57:04.141Z,49.29
2019-02-06T14:59:53.280Z,49.39
2019-02-06T15:02:59.597Z,49.05
2019-02-06T15:06:18.465Z,48.84
2019-02-06T15:09:15.296Z,48.90
2019-02-06T15:12:53.014Z,47.95
2019-02-06T15:15:32.285Z,48.41
2019-02-06T15:18:23.404Z,49.19
2019-02-06T15:21:22.090Z,49.77
2019-02-06T15:24:14.303Z,50.22
2019-02-06T15:27:10.467Z,50.21
2019-02-06T15:29:53.401Z,50.81
2019-02-06T15:33:27.593Z,51.01
2019-02-06T15:36:18.823Z,51.36
2019-02-06T15:39:41.442Z,51.68
2019-02-06T15:42:46.140Z,52.29
2019-02-06T15:45:26.951Z,52.93
2019-02-06T15:48:37.675Z,53.35
2019-02-06T15:51:42.195Z,53.88
2019-02-06T15:54:57.502Z,54.72
2019-02-06T15:58:11.281Z,54.96
2019-02-06T16:01:26.114Z,56.26
2019-02-06T16:04:55.526Z,56.72
2019-02-06T16:07:59.654Z,56.11
2019-02-06T16:10:33.293Z,56.75
2019-02-06T16:13:53.720Z,57.54
2019-02-06T16:17:17.916Z,57.30
2019-02-06T16:20:08.827Z,57.32
2019-02-06T16:23:08.103Z,56.87
2019-02-06T16:26:27.071Z,56.86
2019-02-06T16:29:41.067Z,56.35
2019-02-06T16:32:26.725Z,56.22
2019-02-06T16:35:31.151Z,55.61
2019-02-06T16:38:27.055Z,55.76
2019-02-06T16:41:35.191Z,55.97
2019-02-06T16:44:26.988Z,55.95
2019-02-06T16:47:33.327Z,56.15
2019-02-06T16:50:49.985Z,56.08
2019-02-06T16:53:52.972Z,56.33
2019-02-06T16:56:41.240Z,58.61
2019-02-06T16:59:49.110Z,59.35
2019-02-06T17:02:53.859Z,57.93
2019-02-06T17:05:48.988Z,56.91
2019-02-06T17:08:59.796Z,56.27
2019-02-06T17:12:22.292Z,55.88
2019-02-06T17:15:22.265Z,55.58
2019-02-06T17:18:14.507Z,55.47
2019-02-06T17:21:42.622Z,55.49
2019-02-06T17:24:47.490Z,55.48
2019-02-06T17:27:48.013Z,55.71
2019-02-06T17:30:52.874Z,55.58
2019-02-06T17:34:07.785Z,55.96
2019-02-06T17:37:05.225Z,55.33
2019-02-06T17:40:01.485Z,54.37
2019-02-06T17:42:45.817Z,54.43
2019-02-06T17:45:34.744Z,54.49
2019-02-06T17:48:23.227Z,54.89
2019-02-06T17:51:39.223Z,55.14
2019-02-06T17:54:36.207Z,55.51
2019-02-06T17:57:04.764Z,55.21
2019-02-06T17:59:33.335Z,54.77
2019-02-06T18:02:02.213Z,54.97
2019-02-06T18:04:34.469Z,55.39
2019-02-06T18:07:03.779Z,55.22
2019-02-06T18:09:32.674Z,55.16
2019-02-06T18:12:01.227Z,55.48
2019-02-06T18:14:29.805Z,55.32
2019-02-06T18:16:58.428Z,55.15
2019-02-06T18:19:27.012Z,55.18
2019-02-06T18:21:55.591Z,55.35
2019-02-06T18:24:24.512Z,55.65
2019-02-06T18:26:53.059Z,55.74
2019-02-06T18:29:21.620Z,55.91
2019-02-06T18:31:50.206Z,56.16
2019-02-06T18:34:18.808Z,56.37
2019-02-06T18:36:47.370Z,56.41
2019-02-06T18:39:16.588Z,56.32
2019-02-06T18:41:45.169Z,56.39
2019-02-06T18:44:13.725Z,56.57
2019-02-06T18:46:42.590Z,56.52
2019-02-06T18:49:11.234Z,56.57
2019-02-06T18:51:39.766Z,55.97
2019-02-06T18:54:09.360Z,56.40
2019-02-06T18:56:37.910Z,56.78
2019-02-06T18:59:06.912Z,56.54
2019-02-06T19:01:35.542Z,56.97
2019-02-06T19:04:06.650Z,56.73
2019-02-06T19:06:35.354Z,57.04
2019-02-06T19:09:05.436Z,57.22
2019-02-06T19:11:34.010Z,56.95
2019-02-06T19:14:02.611Z,57.55
2019-02-06T19:16:31.167Z,57.31
2019-02-06T19:18:59.920Z,57.30
2019-02-06T19:21:28.538Z,57.27
2019-02-06T19:23:57.094Z,57.59
2019-02-06T19:26:25.647Z,57.96
2019-02-06T19:28:54.231Z,57.90
2019-02-06T19:31:22.779Z,58.23
2019-02-06T19:33:51.333Z,58.33
2019-02-06T19:36:20.318Z,58.09
2019-02-06T19:38:48.872Z,58.40
2019-02-06T19:41:17.451Z,58.33
2019-02-06T19:43:46.115Z,58.14
2019-02-06T19:46:14.668Z,58.12
2019-02-06T19:48:43.223Z,58.46
2019-02-06T19:51:11.817Z,58.54
2019-02-06T19:53:40.464Z,58.41
2019-02-06T19:56:09.411Z,58.78
2019-02-06T19:58:38.012Z,59.15
2019-02-06T20:01:07.743Z,59.02
2019-02-06T20:03:36.297Z,59.03
2019-02-06T20:06:05.761Z,59.41
2019-02-06T20:08:34.525Z,59.59
2019-02-06T20:11:03.074Z,59.31
2019-02-06T20:13:32.176Z,58.57
2019-02-06T20:16:00.733Z,58.55
2019-02-06T20:18:29.283Z,58.50
2019-02-06T20:20:57.879Z,58.18
2019-02-06T20:23:26.463Z,58.06
2019-02-06T20:25:55.016Z,58.47
2019-02-06T20:28:23.605Z,58.46
2019-02-06T20:30:52.168Z,58.64
2019-02-06T20:33:21.034Z,58.51
2019-02-06T20:35:49.589Z,58.74
2019-02-06T20:38:18.138Z,58.76
2019-02-06T20:40:46.725Z,59.13
2019-02-06T20:43:22.256Z,59.29
2019-02-06T20:45:45.607Z,59.45
2019-02-06T20:48:14.165Z,59.38
2019-02-06T20:50:43.012Z,59.40
2019-02-06T20:53:11.602Z,59.56
2019-02-06T20:55:40.180Z,59.84
2019-02-06T20:58:08.737Z,60.43
2019-02-06T21:00:37.928Z,61.33
2019-02-06T21:03:06.927Z,62.22
2019-02-06T21:05:35.495Z,62.41
2019-02-06T21:08:04.428Z,62.23
2019-02-06T21:10:33.049Z,61.22
2019-02-06T21:13:01.598Z,60.75
2019-02-06T21:15:32.843Z,60.54
2019-02-06T21:18:00.457Z,60.57
2019-02-06T21:20:29.041Z,60.84
2019-02-06T21:22:57.996Z,60.50
2019-02-06T21:25:26.572Z,60.97
2019-02-06T21:27:55.160Z,61.38
2019-02-06T21:30:25.828Z,61.73
2019-02-06T21:32:54.376Z,64.63
2019-02-06T21:35:22.997Z,66.73
2019-02-06T21:37:51.543Z,67.96
2019-02-06T21:40:22.575Z,68.34
2019-02-06T21:42:51.168Z,69.37
2019-02-06T21:45:19.741Z,68.57
2019-02-06T21:47:48.298Z,68.98
2019-02-06T21:50:17.924Z,67.25
2019-02-06T21:52:46.594Z,66.70
2019-02-06T21:55:16.283Z,65.64
2019-02-06T21:57:44.934Z,64.89
2019-02-06T22:00:27.709Z,63.79
2019-02-06T22:02:56.320Z,62.99
2019-02-06T22:05:25.069Z,62.88
2019-02-06T22:07:55.435Z,62.74
2019-02-06T22:10:25.122Z,62.73
2019-02-06T22:12:54.974Z,62.91
2019-02-06T22:15:26.324Z,63.10
2019-02-06T22:17:55.888Z,63.47
2019-02-06T22:20:25.865Z,64.24
2019-02-06T22:22:55.573Z,64.29
2019-02-06T22:25:25.333Z,66.25
2019-02-06T22:27:54.307Z,69.11
2019-02-06T22:30:25.891Z,72.02
2019-02-06T22:32:55.588Z,73.09
2019-02-06T22:35:25.680Z,73.87
2019-02-06T22:37:55.290Z,73.79
2019-02-06T22:40:25.333Z,73.42
2019-02-06T22:42:55.026Z,74.06
2019-02-06T22:45:26.371Z,74.96
2019-02-06T22:47:55.806Z,74.80
2019-02-06T22:50:26.654Z,74.52
2019-02-06T22:52:56.515Z,75.00
2019-02-06T22:55:25.838Z,75.28
2019-02-06T22:57:55.161Z,75.47
2019-02-06T23:00:45.752Z,76.17
2019-02-06T23:03:16.797Z,76.32
2019-02-06T23:05:46.608Z,77.00
2019-02-06T23:08:18.451Z,76.59
2019-02-06T23:10:48.084Z,76.55
2019-02-06T23:13:17.708Z,76.67
2019-02-06T23:15:47.392Z,76.92
2019-02-06T23:18:17.475Z,77.23
2019-02-06T23:20:47.606Z,76.82
2019-02-06T23:23:17.038Z,77.07
2019-02-06T23:25:46.449Z,76.75
2019-02-06T23:28:16.230Z,76.69
2019-02-06T23:30:46.164Z,76.05
2019-02-06T23:33:16.567Z,76.16
2019-02-06T23:35:46.292Z,75.88
2019-02-06T23:38:15.634Z,76.27
2019-02-06T23:40:44.461Z,76.91
2019-02-06T23:43:13.017Z,77.59
2019-02-06T23:45:42.021Z,78.82
2019-02-06T23:48:11.687Z,77.51
2019-02-06T23:50:41.383Z,76.33
2019-02-06T23:53:10.732Z,76.55
2019-02-06T23:55:40.302Z,76.14
2019-02-06T23:58:09.617Z,75.89
